Time;durP1;ratioP1;P1;durP2;ratioP2;P2;SDS_P1;SDS_P2;PMS_P1;PMS_P2;Temp;Humidity;BMP_temperature;BMP_pressure;BME280_temperature;BME280_humidity;BME280_pressure;Samples;Min_cycle;Max_cycle;Signal;HPM_P1;HPM_P2
2022/08/27 00:01:59;;;;;;;0.70;0.60;;;;;;;;;;4146750;28;20058;-40
2022/08/27 00:04:01;;;;;;;0.30;0.30;;;;;;;;;;4146763;28;20076;-39
2022/08/27 00:06:02;;;;;;;0.60;0.40;;;;;;;;;;4146692;28;20054;-40
2022/08/27 00:08:08;;;;;;;0.50;0.50;;;;;;;;;;4146650;28;20080;-39
2022/08/27 00:10:13;;;;;;;0.73;0.47;;;;;;;;;;4146917;28;20061;-39
2022/08/27 00:12:14;;;;;;;1.42;0.40;;;;;;;;;;4146753;28;20057;-38
2022/08/27 00:14:16;;;;;;;0.60;0.60;;;;;;;;;;4146471;28;20088;-37
2022/08/27 00:16:17;;;;;;;0.70;0.63;;;;;;;;;;4146843;28;20195;-39
2022/08/27 00:18:19;;;;;;;0.75;0.47;;;;;;;;;;4145687;28;20054;-38
2022/08/27 00:20:23;;;;;;;0.50;0.47;;;;;;;;;;4146719;28;20429;-41
2022/08/27 00:22:24;;;;;;;0.50;0.50;;;;;;;;;;4146456;28;20058;-39
2022/08/27 00:24:25;;;;;;;0.30;0.30;;;;;;;;;;4146726;28;20517;-39
2022/08/27 00:26:27;;;;;;;1.05;0.68;;;;;;;;;;4146791;28;20054;-39
2022/08/27 00:28:28;;;;;;;0.65;0.55;;;;;;;;;;4146047;28;20076;-39
2022/08/27 00:30:29;;;;;;;0.68;0.50;;;;;;;;;;4146492;28;20120;-40
2022/08/27 00:32:30;;;;;;;0.68;0.60;;;;;;;;;;4146520;28;20559;-39
2022/08/27 00:34:31;;;;;;;2.05;0.60;;;;;;;;;;4146875;28;20061;-40
2022/08/27 00:36:33;;;;;;;1.20;0.50;;;;;;;;;;4146494;28;20409;-40
2022/08/27 00:38:35;;;;;;;0.30;0.30;;;;;;;;;;4144985;28;20156;-39
2022/08/27 00:40:36;;;;;;;0.40;0.40;;;;;;;;;;4146487;28;20473;-39
2022/08/27 00:42:37;;;;;;;0.50;0.50;;;;;;;;;;4146190;28;20069;-39
2022/08/27 00:44:39;;;;;;;0.50;0.50;;;;;;;;;;4146402;28;20390;-39
2022/08/27 00:46:43;;;;;;;0.45;0.45;;;;;;;;;;4146490;28;20120;-40
2022/08/27 00:48:44;;;;;;;0.40;0.40;;;;;;;;;;4146458;28;20108;-39
2022/08/27 00:50:50;;;;;;;0.50;0.50;;;;;;;;;;4146438;28;20155;-39
2022/08/27 00:52:55;;;;;;;0.38;0.38;;;;;;;;;;4145103;28;20061;-39
2022/08/27 00:55:06;;;;;;;0.60;0.47;;;;;;;;;;4145069;28;20057;-39
2022/08/27 00:57:07;;;;;;;0.82;0.60;;;;;;;;;;4146278;28;20065;-40
2022/08/27 00:59:11;;;;;;;0.50;0.50;;;;;;;;;;4146058;28;20053;-40
2022/08/27 01:01:16;;;;;;;1.40;0.63;;;;;;;;;;4131828;28;20525;-39
2022/08/27 01:03:18;;;;;;;0.70;0.40;;;;;;;;;;4129929;28;20058;-39
2022/08/27 01:05:21;;;;;;;0.50;0.50;;;;;;;;;;4130376;28;20130;-39
2022/08/27 01:07:23;;;;;;;0.47;0.45;;;;;;;;;;4128662;28;20447;-39
2022/08/27 01:09:25;;;;;;;0.50;0.40;;;;;;;;;;4129995;28;20128;-39
2022/08/27 01:11:27;;;;;;;0.60;0.60;;;;;;;;;;4128883;28;20058;-39
2022/08/27 01:13:31;;;;;;;0.47;0.47;;;;;;;;;;4129765;28;20070;-40
2022/08/27 01:15:32;;;;;;;0.50;0.50;;;;;;;;;;4128854;28;20065;-40
2022/08/27 01:17:36;;;;;;;1.05;0.73;;;;;;;;;;4129917;28;20050;-39
2022/08/27 01:19:44;;;;;;;0.40;0.40;;;;;;;;;;4128675;28;20050;-39
2022/08/27 01:22:27;;;;;;;0.60;0.50;;;;;;;;;;4128482;28;20100;-39
2022/08/27 01:24:32;;;;;;;0.50;0.40;;;;;;;;;;4122709;28;20109;-40
2022/08/27 01:26:33;;;;;;;0.75;0.40;;;;;;;;;;4112802;28;20051;-39
2022/08/27 01:28:35;;;;;;;0.68;0.50;;;;;;;;;;4129527;28;20061;-39
2022/08/27 01:30:37;;;;;;;1.45;0.70;;;;;;;;;;4129925;28;20062;-39
2022/08/27 01:32:38;;;;;;;0.50;0.50;;;;;;;;;;4112494;28;20097;-39
2022/08/27 01:34:40;;;;;;;0.70;0.60;;;;;;;;;;4132555;28;20505;-39
2022/08/27 01:36:41;;;;;;;0.47;0.47;;;;;;;;;;4132724;28;20105;-39
2022/08/27 01:38:42;;;;;;;0.60;0.52;;;;;;;;;;4132660;28;20058;-40
2022/08/27 01:40:44;;;;;;;0.52;0.52;;;;;;;;;;4132548;28;20050;-40
2022/08/27 01:42:48;;;;;;;0.60;0.57;;;;;;;;;;4131076;28;20439;-40
2022/08/27 01:44:55;;;;;;;0.40;0.40;;;;;;;;;;4131332;28;20069;-39
2022/08/27 01:46:56;;;;;;;0.60;0.60;;;;;;;;;;4132551;28;20054;-39
2022/08/27 01:48:57;;;;;;;0.95;0.63;;;;;;;;;;4132556;28;20058;-39
2022/08/27 01:50:58;;;;;;;0.60;0.40;;;;;;;;;;4148425;28;20100;-39
2022/08/27 01:53:05;;;;;;;0.40;0.40;;;;;;;;;;4148721;28;20057;-39
2022/08/27 01:55:07;;;;;;;0.70;0.43;;;;;;;;;;4148700;28;20057;-40
2022/08/27 01:57:08;;;;;;;0.88;0.50;;;;;;;;;;4148932;28;20058;-40
2022/08/27 01:59:10;;;;;;;0.43;0.43;;;;;;;;;;4130974;28;20054;-39
2022/08/27 02:01:15;;;;;;;0.80;0.70;;;;;;;;;;4148530;28;20061;-40
2022/08/27 02:03:17;;;;;;;0.60;0.60;;;;;;;;;;4147285;28;20402;-39
2022/08/27 02:05:19;;;;;;;0.70;0.50;;;;;;;;;;4148401;28;20112;-39
2022/08/27 02:07:20;;;;;;;0.50;0.50;;;;;;;;;;4148739;28;20093;-39
2022/08/27 02:09:22;;;;;;;0.50;0.50;;;;;;;;;;4148287;28;20359;-39
2022/08/27 02:11:23;;;;;;;0.60;0.50;;;;;;;;;;4148327;28;20054;-40
2022/08/27 02:13:25;;;;;;;0.68;0.52;;;;;;;;;;4147930;28;20066;-40
2022/08/27 02:15:27;;;;;;;0.95;0.60;;;;;;;;;;4148413;28;20486;-41
2022/08/27 02:17:28;;;;;;;0.55;0.50;;;;;;;;;;4148266;28;20538;-39
2022/08/27 02:19:29;;;;;;;0.90;0.60;;;;;;;;;;4148588;28;20054;-39
2022/08/27 02:21:30;;;;;;;0.50;0.40;;;;;;;;;;4148166;28;20462;-39
2022/08/27 02:23:32;;;;;;;0.52;0.50;;;;;;;;;;4147988;28;20053;-39
2022/08/27 02:25:33;;;;;;;0.90;0.65;;;;;;;;;;4148200;28;20547;-40
2022/08/27 02:27:35;;;;;;;0.73;0.45;;;;;;;;;;4147523;28;20477;-40
2022/08/27 02:29:36;;;;;;;0.95;0.60;;;;;;;;;;4135432;28;20054;-39
2022/08/27 02:31:40;;;;;;;0.70;0.60;;;;;;;;;;4131882;28;20054;-39
2022/08/27 02:33:41;;;;;;;0.90;0.70;;;;;;;;;;4131919;28;20138;-39
2022/08/27 02:35:43;;;;;;;0.70;0.50;;;;;;;;;;4131906;28;20548;-39
2022/08/27 02:37:44;;;;;;;0.65;0.50;;;;;;;;;;4131645;28;20061;-39
2022/08/27 02:39:46;;;;;;;1.27;0.60;;;;;;;;;;4131481;28;20105;-39
2022/08/27 02:41:48;;;;;;;0.60;0.50;;;;;;;;;;4132038;28;20054;-39
2022/08/27 02:43:49;;;;;;;0.55;0.55;;;;;;;;;;4131116;28;20109;-39
2022/08/27 02:45:50;;;;;;;0.65;0.60;;;;;;;;;;4131579;28;20537;-38
2022/08/27 02:47:52;;;;;;;1.27;0.50;;;;;;;;;;4131898;28;20061;-39
2022/08/27 02:49:54;;;;;;;0.68;0.50;;;;;;;;;;4131743;28;20072;-40
2022/08/27 02:51:56;;;;;;;1.02;0.52;;;;;;;;;;4114243;28;20387;-39
2022/08/27 02:53:57;;;;;;;0.50;0.50;;;;;;;;;;4131620;28;20085;-39
2022/08/27 02:55:58;;;;;;;0.40;0.40;;;;;;;;;;4131504;28;20387;-39
2022/08/27 02:57:59;;;;;;;0.57;0.50;;;;;;;;;;4131285;28;20157;-39
2022/08/27 03:00:01;;;;;;;0.50;0.50;;;;;;;;;;4134773;28;20054;-39
2022/08/27 03:02:03;;;;;;;0.95;0.60;;;;;;;;;;4147551;28;20088;-39
2022/08/27 03:04:04;;;;;;;0.70;0.50;;;;;;;;;;4147782;28;20054;-38
2022/08/27 03:06:05;;;;;;;0.50;0.50;;;;;;;;;;4147550;28;20054;-39
2022/08/27 03:08:06;;;;;;;0.60;0.60;;;;;;;;;;4147399;28;20532;-39
2022/08/27 03:10:09;;;;;;;0.45;0.45;;;;;;;;;;4145775;28;20104;-38
2022/08/27 03:12:11;;;;;;;0.73;0.70;;;;;;;;;;4147480;28;20053;-39
2022/08/27 03:14:13;;;;;;;0.52;0.52;;;;;;;;;;4147153;28;20157;-39
2022/08/27 03:16:14;;;;;;;0.57;0.50;;;;;;;;;;4147498;28;20065;-39
2022/08/27 03:18:18;;;;;;;0.93;0.50;;;;;;;;;;4147656;28;20058;-39
2022/08/27 03:20:20;;;;;;;2.05;0.70;;;;;;;;;;4147346;28;20443;-38
2022/08/27 03:22:21;;;;;;;0.40;0.40;;;;;;;;;;4147352;28;20058;-38
2022/08/27 03:24:22;;;;;;;0.60;0.52;;;;;;;;;;4147741;28;20057;-38
2022/08/27 03:26:23;;;;;;;1.23;0.73;;;;;;;;;;4129712;28;20089;-40
2022/08/27 03:28:30;;;;;;;0.60;0.50;;;;;;;;;;4147075;28;20065;-39
2022/08/27 03:30:31;;;;;;;0.68;0.60;;;;;;;;;;4146123;28;20061;-38
2022/08/27 03:32:34;;;;;;;0.63;0.43;;;;;;;;;;4146121;28;20112;-39
2022/08/27 03:34:35;;;;;;;0.68;0.63;;;;;;;;;;4147869;28;20065;-39
2022/08/27 03:36:36;;;;;;;1.02;0.70;;;;;;;;;;4147178;28;20059;-38
2022/08/27 03:38:38;;;;;;;0.60;0.50;;;;;;;;;;4145892;28;20054;-39
2022/08/27 03:40:39;;;;;;;0.52;0.52;;;;;;;;;;4147504;28;20056;-40
2022/08/27 03:42:41;;;;;;;1.23;0.50;;;;;;;;;;4146512;28;20064;-39
2022/08/27 03:44:42;;;;;;;0.43;0.43;;;;;;;;;;4147127;28;20058;-41
2022/08/27 03:46:43;;;;;;;0.65;0.57;;;;;;;;;;4146982;28;20192;-39
2022/08/27 03:48:44;;;;;;;0.70;0.60;;;;;;;;;;4146662;28;20412;-38
2022/08/27 03:50:49;;;;;;;0.50;0.40;;;;;;;;;;4133248;28;20050;-39
2022/08/27 03:52:50;;;;;;;1.70;0.98;;;;;;;;;;4130695;28;20073;-38
2022/08/27 03:54:51;;;;;;;0.60;0.60;;;;;;;;;;4130906;28;20085;-38
2022/08/27 03:56:52;;;;;;;0.60;0.60;;;;;;;;;;4127799;28;20089;-39
2022/08/27 03:58:54;;;;;;;1.10;0.70;;;;;;;;;;4128444;28;20128;-39
2022/08/27 04:00:55;;;;;;;0.82;0.60;;;;;;;;;;4129109;28;20057;-39
2022/08/27 04:02:56;;;;;;;1.20;0.77;;;;;;;;;;4128958;28;20062;-39
2022/08/27 04:04:57;;;;;;;0.60;0.45;;;;;;;;;;4128712;28;20418;-39
2022/08/27 04:06:59;;;;;;;0.50;0.50;;;;;;;;;;4128863;28;20054;-39
2022/08/27 04:09:02;;;;;;;0.55;0.50;;;;;;;;;;4128447;28;20438;-39
2022/08/27 04:11:06;;;;;;;0.70;0.70;;;;;;;;;;4128854;28;20494;-39
2022/08/27 04:13:07;;;;;;;1.23;0.52;;;;;;;;;;4128487;28;20065;-39
2022/08/27 04:15:10;;;;;;;0.95;0.60;;;;;;;;;;4128577;28;20469;-39
2022/08/27 04:17:12;;;;;;;1.30;0.60;;;;;;;;;;4127119;28;20476;-39
2022/08/27 04:19:13;;;;;;;0.68;0.60;;;;;;;;;;4143727;28;20057;-39
2022/08/27 04:21:14;;;;;;;0.50;0.50;;;;;;;;;;4128493;28;20062;-39
2022/08/27 04:23:16;;;;;;;0.50;0.50;;;;;;;;;;4128665;28;20061;-39
2022/08/27 04:25:17;;;;;;;0.63;0.63;;;;;;;;;;4128482;28;20395;-39
2022/08/27 04:27:19;;;;;;;0.63;0.60;;;;;;;;;;4128408;28;20930;-40
2022/08/27 04:29:20;;;;;;;1.95;0.73;;;;;;;;;;4128651;28;20055;-38
2022/08/27 04:31:21;;;;;;;0.60;0.60;;;;;;;;;;4128475;28;20054;-39
2022/08/27 04:33:23;;;;;;;0.60;0.50;;;;;;;;;;4128707;28;20113;-39
2022/08/27 04:35:24;;;;;;;0.50;0.50;;;;;;;;;;4128503;28;20069;-46
2022/08/27 04:37:30;;;;;;;0.70;0.60;;;;;;;;;;4126981;28;20058;-38
2022/08/27 04:39:31;;;;;;;0.60;0.57;;;;;;;;;;4128590;28;20065;-39
2022/08/27 04:41:33;;;;;;;0.82;0.60;;;;;;;;;;4128399;28;20536;-40
2022/08/27 04:43:34;;;;;;;0.60;0.60;;;;;;;;;;4127923;28;20133;-39
2022/08/27 04:45:43;;;;;;;0.30;0.30;;;;;;;;;;4138203;28;20100;-39
2022/08/27 04:47:44;;;;;;;1.45;0.80;;;;;;;;;;4129001;28;20058;-38
2022/08/27 04:49:45;;;;;;;0.63;0.40;;;;;;;;;;4145035;28;20062;-39
2022/08/27 04:51:47;;;;;;;0.60;0.60;;;;;;;;;;4146514;28;20516;-39
2022/08/27 04:53:48;;;;;;;0.82;0.70;;;;;;;;;;4146359;28;20556;-39
2022/08/27 04:55:51;;;;;;;0.60;0.60;;;;;;;;;;4144848;28;20383;-39
2022/08/27 04:57:53;;;;;;;0.47;0.47;;;;;;;;;;4146115;28;20108;-39
2022/08/27 04:59:55;;;;;;;0.60;0.55;;;;;;;;;;4146297;28;20473;-39
2022/08/27 05:01:57;;;;;;;0.60;0.50;;;;;;;;;;4146268;28;20062;-39
2022/08/27 05:03:58;;;;;;;0.70;0.70;;;;;;;;;;4146165;28;20100;-38
2022/08/27 05:06:02;;;;;;;0.60;0.60;;;;;;;;;;4146350;28;20093;-39
2022/08/27 05:08:05;;;;;;;0.65;0.60;;;;;;;;;;4148436;28;20125;-40
2022/08/27 05:10:06;;;;;;;0.47;0.47;;;;;;;;;;4149305;28;20050;-39
2022/08/27 05:12:08;;;;;;;0.50;0.50;;;;;;;;;;4149334;28;20066;-39
2022/08/27 05:14:11;;;;;;;0.50;0.50;;;;;;;;;;4148844;28;20535;-38
2022/08/27 05:16:14;;;;;;;0.60;0.60;;;;;;;;;;4149579;28;20050;-38
2022/08/27 05:18:16;;;;;;;0.40;0.40;;;;;;;;;;4147839;28;20321;-39
2022/08/27 05:20:18;;;;;;;1.25;0.57;;;;;;;;;;4149208;28;20390;-38
2022/08/27 05:22:19;;;;;;;1.80;0.73;;;;;;;;;;4149093;28;20054;-39
2022/08/27 05:24:20;;;;;;;0.50;0.50;;;;;;;;;;4149202;28;20081;-39
2022/08/27 05:26:22;;;;;;;0.60;0.60;;;;;;;;;;4149030;28;20401;-38
2022/08/27 05:28:25;;;;;;;0.52;0.52;;;;;;;;;;4148517;28;20121;-39
2022/08/27 05:30:26;;;;;;;0.88;0.60;;;;;;;;;;4149325;28;20116;-39
2022/08/27 05:32:28;;;;;;;0.40;0.40;;;;;;;;;;4149121;28;20195;-39
2022/08/27 05:34:29;;;;;;;0.63;0.63;;;;;;;;;;4149133;28;20064;-39
2022/08/27 05:36:32;;;;;;;0.68;0.63;;;;;;;;;;4148878;28;20149;-38
2022/08/27 05:38:33;;;;;;;1.38;0.50;;;;;;;;;;4149046;28;20123;-39
2022/08/27 05:40:35;;;;;;;1.40;0.60;;;;;;;;;;4148893;28;20119;-39
2022/08/27 05:42:36;;;;;;;0.60;0.60;;;;;;;;;;4148186;28;20521;-38
2022/08/27 05:44:38;;;;;;;0.50;0.50;;;;;;;;;;4149061;28;20116;-39
2022/08/27 05:46:39;;;;;;;0.43;0.43;;;;;;;;;;4148707;28;20413;-38
2022/08/27 05:48:41;;;;;;;0.90;0.60;;;;;;;;;;4131357;28;20081;-38
2022/08/27 05:50:43;;;;;;;0.68;0.63;;;;;;;;;;4147464;28;20054;-38
2022/08/27 05:52:44;;;;;;;0.63;0.60;;;;;;;;;;4148500;28;20191;-37
2022/08/27 05:54:46;;;;;;;0.40;0.40;;;;;;;;;;4148705;28;20437;-38
2022/08/27 05:56:48;;;;;;;1.33;0.50;;;;;;;;;;4148378;28;20049;-39
2022/08/27 06:01:09;;;;;;;0.57;0.50;;;;;;;;;;4147299;28;20089;-38
2022/08/27 06:03:11;;;;;;;1.00;0.40;;;;;;;;;;4147183;28;20059;-38
2022/08/27 06:05:12;;;;;;;2.25;0.60;;;;;;;;;;4148675;28;20199;-39
2022/08/27 06:07:14;;;;;;;0.60;0.60;;;;;;;;;;4148446;28;20497;-38
2022/08/27 06:09:18;;;;;;;0.40;0.40;;;;;;;;;;4143442;28;20201;-38
2022/08/27 06:11:19;;;;;;;0.82;0.68;;;;;;;;;;4130319;28;20058;-39
2022/08/27 06:13:21;;;;;;;0.68;0.68;;;;;;;;;;4130143;28;20081;-40
2022/08/27 06:15:22;;;;;;;0.88;0.68;;;;;;;;;;4130250;28;20062;-38
2022/08/27 06:17:24;;;;;;;0.50;0.50;;;;;;;;;;4130557;28;20066;-38
2022/08/27 06:19:25;;;;;;;0.88;0.45;;;;;;;;;;4129645;28;20165;-38
2022/08/27 06:21:26;;;;;;;0.60;0.60;;;;;;;;;;4129718;28;20110;-38
2022/08/27 06:23:28;;;;;;;0.60;0.60;;;;;;;;;;4130252;28;20104;-40
2022/08/27 06:25:31;;;;;;;0.50;0.50;;;;;;;;;;4129997;28;20054;-38
2022/08/27 06:27:32;;;;;;;0.75;0.60;;;;;;;;;;4129728;28;20137;-39
2022/08/27 06:29:33;;;;;;;0.50;0.50;;;;;;;;;;4156447;28;20061;-39
2022/08/27 06:31:35;;;;;;;0.70;0.60;;;;;;;;;;4146391;28;20590;-38
2022/08/27 06:33:36;;;;;;;0.88;0.50;;;;;;;;;;4145887;28;20456;-38
2022/08/27 06:35:38;;;;;;;0.50;0.50;;;;;;;;;;4146041;28;20428;-39
2022/08/27 06:37:39;;;;;;;2.78;0.50;;;;;;;;;;4144818;28;20637;-38
2022/08/27 06:39:40;;;;;;;0.50;0.47;;;;;;;;;;4146309;28;20057;-39
2022/08/27 06:41:42;;;;;;;0.50;0.50;;;;;;;;;;4146597;28;20054;-39
2022/08/27 06:43:46;;;;;;;0.40;0.40;;;;;;;;;;4144343;28;20547;-38
2022/08/27 06:45:47;;;;;;;0.52;0.50;;;;;;;;;;4145877;28;20057;-38
2022/08/27 06:47:48;;;;;;;0.52;0.50;;;;;;;;;;4146185;28;20061;-39
2022/08/27 06:49:49;;;;;;;0.60;0.60;;;;;;;;;;4146199;28;20501;-40
2022/08/27 06:51:50;;;;;;;0.90;0.70;;;;;;;;;;4145864;28;20139;-39
2022/08/27 06:53:53;;;;;;;0.55;0.52;;;;;;;;;;4145771;28;20123;-38
2022/08/27 06:55:55;;;;;;;0.65;0.57;;;;;;;;;;4144659;28;20058;-39
2022/08/27 06:57:56;;;;;;;0.75;0.43;;;;;;;;;;4144157;28;20074;-39
2022/08/27 06:59:57;;;;;;;1.73;0.57;;;;;;;;;;4147551;28;20519;-38
2022/08/27 07:01:58;;;;;;;0.60;0.60;;;;;;;;;;4147385;28;20062;-39
2022/08/27 07:04:02;;;;;;;0.50;0.50;;;;;;;;;;4147672;28;20080;-39
2022/08/27 07:06:04;;;;;;;0.70;0.60;;;;;;;;;;4147445;28;20100;-38
2022/08/27 07:08:07;;;;;;;0.60;0.60;;;;;;;;;;4147361;28;20548;-39
2022/08/27 07:10:08;;;;;;;0.82;0.40;;;;;;;;;;4146234;28;20053;-39
2022/08/27 07:12:09;;;;;;;0.85;0.70;;;;;;;;;;4147660;28;20049;-43
2022/08/27 07:14:10;;;;;;;0.40;0.40;;;;;;;;;;4145528;28;20128;-38
2022/08/27 07:16:14;;;;;;;0.60;0.60;;;;;;;;;;4147493;28;20054;-38
2022/08/27 07:18:15;;;;;;;0.40;0.40;;;;;;;;;;4147226;28;20057;-38
2022/08/27 07:20:19;;;;;;;0.70;0.70;;;;;;;;;;4147369;28;20062;-40
2022/08/27 07:22:20;;;;;;;0.50;0.50;;;;;;;;;;4147336;28;20054;-38
2022/08/27 07:24:21;;;;;;;0.75;0.60;;;;;;;;;;4147400;28;20203;-38
2022/08/27 07:26:22;;;;;;;0.80;0.70;;;;;;;;;;4145968;28;20050;-38
2022/08/27 07:28:24;;;;;;;0.60;0.60;;;;;;;;;;4145458;28;20058;-38
2022/08/27 07:30:26;;;;;;;0.70;0.70;;;;;;;;;;4146584;28;20054;-38
2022/08/27 07:32:27;;;;;;;0.70;0.50;;;;;;;;;;4146868;28;20119;-38
2022/08/27 07:34:29;;;;;;;0.70;0.70;;;;;;;;;;4147272;28;20057;-40
2022/08/27 07:36:30;;;;;;;0.60;0.60;;;;;;;;;;4145798;28;20127;-39
2022/08/27 07:38:33;;;;;;;0.95;0.50;;;;;;;;;;4146973;28;20435;-38
2022/08/27 07:40:34;;;;;;;0.50;0.50;;;;;;;;;;4147192;28;20054;-38
2022/08/27 07:44:56;;;;;;;0.55;0.55;;;;;;;;;;4146855;28;20061;-38
2022/08/27 07:46:58;;;;;;;0.70;0.60;;;;;;;;;;4145519;28;20100;-38
2022/08/27 07:48:59;;;;;;;0.80;0.60;;;;;;;;;;4147028;28;20053;-37
2022/08/27 07:51:04;;;;;;;1.60;0.57;;;;;;;;;;4146908;28;20054;-39
2022/08/27 07:53:06;;;;;;;1.20;0.70;;;;;;;;;;4146815;28;20207;-39
2022/08/27 07:55:07;;;;;;;0.50;0.50;;;;;;;;;;4147212;28;20061;-38
2022/08/27 07:57:09;;;;;;;0.95;0.80;;;;;;;;;;4145355;28;20436;-39
2022/08/27 07:59:11;;;;;;;0.63;0.57;;;;;;;;;;4146508;28;20073;-38
2022/08/27 08:01:12;;;;;;;0.50;0.50;;;;;;;;;;4146761;28;20112;-39
2022/08/27 08:03:14;;;;;;;0.63;0.63;;;;;;;;;;4146603;28;20390;-38
2022/08/27 08:05:15;;;;;;;0.60;0.60;;;;;;;;;;4146997;28;20080;-39
2022/08/27 08:07:17;;;;;;;0.70;0.70;;;;;;;;;;4146484;28;20409;-40
2022/08/27 08:09:20;;;;;;;0.60;0.60;;;;;;;;;;4146950;28;20089;-38
2022/08/27 08:11:22;;;;;;;0.47;0.43;;;;;;;;;;4145454;28;20108;-38
2022/08/27 08:13:23;;;;;;;0.50;0.50;;;;;;;;;;4146179;28;20053;-39
2022/08/27 08:15:24;;;;;;;0.40;0.40;;;;;;;;;;4145339;28;20058;-38
2022/08/27 08:17:25;;;;;;;0.88;0.65;;;;;;;;;;4146692;28;20485;-39
2022/08/27 08:19:27;;;;;;;1.17;0.60;;;;;;;;;;4146864;28;20080;-39
2022/08/27 08:21:28;;;;;;;1.23;0.60;;;;;;;;;;4145337;28;20124;-40
2022/08/27 08:23:31;;;;;;;0.50;0.50;;;;;;;;;;4146502;28;20100;-38
2022/08/27 08:25:32;;;;;;;0.93;0.70;;;;;;;;;;4146523;28;20058;-39
2022/08/27 08:27:34;;;;;;;0.50;0.50;;;;;;;;;;4146260;28;20108;-39
2022/08/27 08:29:36;;;;;;;1.05;0.57;;;;;;;;;;4146585;28;20065;-38
2022/08/27 08:31:37;;;;;;;0.90;0.77;;;;;;;;;;4146780;28;20096;-38
2022/08/27 08:33:39;;;;;;;0.63;0.63;;;;;;;;;;4144893;28;20065;-38
2022/08/27 08:35:40;;;;;;;0.60;0.60;;;;;;;;;;4138153;28;20050;-39
2022/08/27 08:37:42;;;;;;;0.60;0.60;;;;;;;;;;4128356;28;20101;-38
2022/08/27 08:39:43;;;;;;;0.63;0.52;;;;;;;;;;4128384;28;20062;-38
2022/08/27 08:41:53;;;;;;;0.73;0.70;;;;;;;;;;4129027;28;20084;-37
2022/08/27 08:43:54;;;;;;;;;;;;;;;;;;4115007;28;20109;-38
2022/08/27 08:46:06;;;;;;;0.60;0.60;;;;;;;;;;4146601;28;19925;-39
2022/08/27 08:48:17;;;;;;;0.43;0.40;;;;;;;;;;4129999;28;20145;-38
2022/08/27 08:50:22;;;;;;;1.10;0.60;;;;;;;;;;4131965;28;20066;-38
2022/08/27 08:52:46;;;;;;;0.60;0.57;;;;;;;;;;4130156;28;20073;-38
2022/08/27 08:54:49;;;;;;;0.57;0.57;;;;;;;;;;4131822;28;20058;-39
2022/08/27 08:57:06;;;;;;;0.47;0.43;;;;;;;;;;4130281;28;20050;-39
2022/08/27 08:59:32;;;;;;;0.70;0.57;;;;;;;;;;4129882;28;20134;-38
2022/08/27 09:01:34;;;;;;;0.90;0.50;;;;;;;;;;4131366;28;20058;-39
2022/08/27 09:03:39;;;;;;;0.50;0.50;;;;;;;;;;4130128;28;20108;-38
2022/08/27 09:05:46;;;;;;;0.70;0.60;;;;;;;;;;4130177;28;20062;-38
2022/08/27 09:08:19;;;;;;;0.50;0.50;;;;;;;;;;4131732;28;20132;-38
2022/08/27 09:10:42;;;;;;;0.52;0.50;;;;;;;;;;4131484;28;20081;-39
2022/08/27 09:12:43;;;;;;;0.73;0.73;;;;;;;;;;4130056;28;20055;-39
2022/08/27 09:15:05;;;;;;;0.68;0.68;;;;;;;;;;4131323;28;20120;-39
2022/08/27 09:17:07;;;;;;;1.13;0.60;;;;;;;;;;4131319;28;20100;-39
2022/08/27 09:19:09;;;;;;;1.40;0.73;;;;;;;;;;4131474;28;20193;-39
2022/08/27 09:21:27;;;;;;;2.03;0.60;;;;;;;;;;4130267;28;20061;-39
2022/08/27 09:24:08;;;;;;;0.70;0.60;;;;;;;;;;4136281;28;20064;-39
2022/08/27 09:26:22;;;;;;;0.45;0.45;;;;;;;;;;4149061;28;20057;-39
2022/08/27 09:30:46;;;;;;;0.60;0.60;;;;;;;;;;4149073;28;20050;-38
2022/08/27 09:32:57;;;;;;;1.08;0.70;;;;;;;;;;4149190;28;20054;-39
2022/08/27 09:35:01;;;;;;;0.88;0.70;;;;;;;;;;4149211;28;20132;-39
2022/08/27 09:37:07;;;;;;;0.98;0.65;;;;;;;;;;4148929;28;20848;-38
2022/08/27 09:39:08;;;;;;;0.60;0.60;;;;;;;;;;4149177;28;20054;-38
2022/08/27 09:41:16;;;;;;;0.90;0.90;;;;;;;;;;4148905;28;20371;-38
2022/08/27 09:43:25;;;;;;;0.85;0.70;;;;;;;;;;4147254;28;20073;-39
2022/08/27 09:45:28;;;;;;;0.60;0.60;;;;;;;;;;4148631;28;20402;-39
2022/08/27 09:47:40;;;;;;;0.77;0.77;;;;;;;;;;4147427;28;20453;-38
2022/08/27 09:49:42;;;;;;;0.70;0.60;;;;;;;;;;4148676;28;20049;-39
2022/08/27 09:51:45;;;;;;;0.80;0.80;;;;;;;;;;4148773;28;20417;-39
2022/08/27 09:53:49;;;;;;;0.80;0.80;;;;;;;;;;4146752;28;20058;-38
2022/08/27 09:55:56;;;;;;;0.95;0.82;;;;;;;;;;4148662;28;20434;-38
2022/08/27 09:57:58;;;;;;;0.60;0.60;;;;;;;;;;4148387;28;20061;-38
2022/08/27 10:00:00;;;;;;;0.70;0.60;;;;;;;;;;4147337;28;20053;-37
2022/08/27 10:02:16;;;;;;;0.95;0.80;;;;;;;;;;4148417;28;20064;-39
2022/08/27 10:04:45;;;;;;;0.70;0.70;;;;;;;;;;4148585;28;20412;-40
2022/08/27 10:06:48;;;;;;;0.88;0.50;;;;;;;;;;4148767;28;20050;-38
2022/08/27 10:08:51;;;;;;;0.73;0.68;;;;;;;;;;4148751;28;20100;-38
2022/08/27 10:10:56;;;;;;;0.70;0.70;;;;;;;;;;4131044;28;20058;-38
2022/08/27 10:13:24;;;;;;;0.82;0.75;;;;;;;;;;4146713;28;20475;-38
2022/08/27 10:15:35;;;;;;;0.98;0.88;;;;;;;;;;4148445;28;20080;-38
2022/08/27 10:17:54;;;;;;;0.82;0.70;;;;;;;;;;4148292;28;20417;-38
2022/08/27 10:20:06;;;;;;;0.75;0.75;;;;;;;;;;4148378;28;20455;-38
2022/08/27 10:22:39;;;;;;;0.50;0.50;;;;;;;;;;4147295;28;20065;-38
2022/08/27 10:24:50;;;;;;;0.75;0.70;;;;;;;;;;4148330;28;20386;-38
2022/08/27 10:27:23;;;;;;;0.60;0.60;;;;;;;;;;4148162;28;20046;-38
2022/08/27 10:29:40;;;;;;;0.90;0.70;;;;;;;;;;4148371;28;20058;-39
2022/08/27 10:31:53;;;;;;;0.73;0.73;;;;;;;;;;4146898;28;20386;-38
2022/08/27 10:34:04;;;;;;;0.60;0.60;;;;;;;;;;4147993;28;20053;-38
2022/08/27 10:36:17;;;;;;;1.08;0.82;;;;;;;;;;4130674;28;20054;-38
2022/08/27 10:38:29;;;;;;;0.60;0.60;;;;;;;;;;4130437;28;20057;-38
2022/08/27 10:40:37;;;;;;;0.68;0.68;;;;;;;;;;4146949;28;20116;-38
2022/08/27 10:42:45;;;;;;;0.95;0.73;;;;;;;;;;4146153;28;20053;-39
2022/08/27 10:44:58;;;;;;;0.68;0.60;;;;;;;;;;4146455;28;20054;-38
2022/08/27 10:47:26;;;;;;;0.80;0.75;;;;;;;;;;4145490;28;20046;-38
2022/08/27 10:49:29;;;;;;;;;;;;;;;;;;4137884;28;20600;-38
2022/08/27 10:51:36;;;;;;;0.60;0.52;;;;;;;;;;4132473;28;19992;-38
2022/08/27 10:53:42;;;;;;;0.55;0.55;;;;;;;;;;4113903;28;20058;-39
2022/08/27 10:55:51;;;;;;;0.95;0.82;;;;;;;;;;4130327;28;20525;-38
2022/08/27 10:58:20;;;;;;;0.50;0.47;;;;;;;;;;4129617;28;20069;-39
2022/08/27 11:00:23;;;;;;;0.70;0.70;;;;;;;;;;4134843;28;20342;-38
2022/08/27 11:02:32;;;;;;;0.70;0.70;;;;;;;;;;4146092;28;20058;-38
2022/08/27 11:04:42;;;;;;;0.73;0.63;;;;;;;;;;4144902;28;20104;-38
2022/08/27 11:06:51;;;;;;;0.60;0.57;;;;;;;;;;4146000;28;20116;-39
2022/08/27 11:09:00;;;;;;;0.70;0.63;;;;;;;;;;4146436;28;20054;-38
2022/08/27 11:11:07;;;;;;;;;;;;;;;;;;4147243;28;20084;-38
2022/08/27 11:13:14;;;;;;;0.63;0.52;;;;;;;;;;4146050;28;19979;-37
2022/08/27 11:15:26;;;;;;;0.40;0.40;;;;;;;;;;4162598;28;20386;-39
2022/08/27 11:17:50;;;;;;;0.50;0.50;;;;;;;;;;4145761;28;20061;-39
2022/08/27 11:19:56;;;;;;;0.80;0.68;;;;;;;;;;4147430;28;20058;-37
2022/08/27 11:22:07;;;;;;;0.50;0.50;;;;;;;;;;4147515;28;20057;-38
2022/08/27 11:24:21;;;;;;;0.90;0.70;;;;;;;;;;4129869;28;20054;-38
2022/08/27 11:26:23;;;;;;;0.60;0.60;;;;;;;;;;4145761;28;20485;-39
2022/08/27 11:28:38;;;;;;;0.70;0.70;;;;;;;;;;4147026;28;20413;-38
2022/08/27 11:30:58;;;;;;;0.98;0.80;;;;;;;;;;4146694;28;20057;-39
2022/08/27 11:33:30;;;;;;;0.60;0.60;;;;;;;;;;4146008;28;20116;-38
2022/08/27 11:36:05;;;;;;;0.70;0.70;;;;;;;;;;4147710;28;20173;-39
2022/08/27 11:38:15;;;;;;;0.70;0.60;;;;;;;;;;4147606;28;20058;-39
2022/08/27 11:40:17;;;;;;;;;;;;;;;;;;4147774;28;20460;-38
2022/08/27 11:42:35;;;;;;;0.50;0.50;;;;;;;;;;4146878;28;20270;-39
2022/08/27 11:44:42;;;;;;;0.70;0.60;;;;;;;;;;4147187;28;20497;-38
2022/08/27 11:46:47;;;;;;;0.70;0.70;;;;;;;;;;4147601;28;20485;-39
2022/08/27 11:49:00;;;;;;;0.80;0.70;;;;;;;;;;4147520;28;20398;-38
2022/08/27 11:51:08;;;;;;;0.63;0.60;;;;;;;;;;4146315;28;20425;-38
2022/08/27 11:53:09;;;;;;;0.85;0.65;;;;;;;;;;4147449;28;20494;-38
2022/08/27 11:55:20;;;;;;;0.60;0.55;;;;;;;;;;4147571;28;20104;-40
2022/08/27 11:57:24;;;;;;;;;;;;;;;;;;4147647;28;20054;-39
2022/08/27 11:59:25;;;;;;;0.77;0.50;;;;;;;;;;4147539;28;19922;-38
2022/08/27 12:01:28;;;;;;;0.50;0.50;;;;;;;;;;4146089;28;20068;-38
2022/08/27 12:03:32;;;;;;;0.68;0.68;;;;;;;;;;4145935;28;20077;-38
2022/08/27 12:05:43;;;;;;;0.73;0.50;;;;;;;;;;4147102;28;20057;-40
2022/08/27 12:07:48;;;;;;;0.80;0.60;;;;;;;;;;4147255;28;20065;-39
2022/08/27 12:09:55;;;;;;;0.57;0.57;;;;;;;;;;4146913;28;20523;-38
2022/08/27 12:11:56;;;;;;;0.75;0.60;;;;;;;;;;4146927;28;20409;-38
2022/08/27 12:14:04;;;;;;;0.63;0.63;;;;;;;;;;4146597;28;20061;-37
2022/08/27 12:16:20;;;;;;;0.63;0.63;;;;;;;;;;4146799;28;20096;-39
2022/08/27 12:18:40;;;;;;;0.60;0.60;;;;;;;;;;4145042;28;20504;-38
2022/08/27 12:21:11;;;;;;;0.50;0.50;;;;;;;;;;4145918;28;20498;-39
2022/08/27 12:25:35;;;;;;;1.35;1.08;;;;;;;;;;4146758;28;20115;-39
2022/08/27 12:27:37;;;;;;;0.77;0.70;;;;;;;;;;4145148;28;20116;-38
2022/08/27 12:29:44;;;;;;;0.65;0.65;;;;;;;;;;4146655;28;20421;-40
2022/08/27 12:31:47;;;;;;;0.73;0.73;;;;;;;;;;4129108;28;20093;-38
2022/08/27 12:33:50;;;;;;;0.73;0.65;;;;;;;;;;4145360;28;20116;-37
2022/08/27 12:35:54;;;;;;;0.80;0.57;;;;;;;;;;4146586;28;20061;-38
2022/08/27 12:38:15;;;;;;;0.65;0.52;;;;;;;;;;4129099;28;20058;-40
2022/08/27 12:40:22;;;;;;;0.90;0.75;;;;;;;;;;4146379;28;20478;-40